Time;durP1;ratioP1;P1;durP2;ratioP2;P2;SDS_P1;SDS_P2;PMS_P1;PMS_P2;Temp;Humidity;BMP_temperature;BMP_pressure;BME280_temperature;BME280_humidity;BME280_pressure;Samples;Min_cycle;Max_cycle;Signal;HPM_P1;HPM_P2
2023/06/03 00:01:12;;;;;;;20.40;7.53;;;13.10;99.90;;;;;;4941702;28;20436;-60
2023/06/03 00:03:44;;;;;;;16.50;7.07;;;13.10;99.90;;;;;;4951810;28;20192;-60
2023/06/03 00:06:13;;;;;;;18.03;7.30;;;13.00;99.90;;;;;;4949799;28;20196;-61
2023/06/03 00:08:43;;;;;;;16.77;7.63;;;13.00;99.90;;;;;;4951676;28;20224;-60
2023/06/03 00:11:13;;;;;;;12.80;7.77;;;13.00;99.90;;;;;;4948998;28;20234;-60
2023/06/03 00:13:41;;;;;;;15.33;7.90;;;13.00;99.90;;;;;;4964470;28;20310;-60
2023/06/03 00:16:09;;;;;;;19.27;8.20;;;12.90;99.90;;;;;;4950987;28;20223;-60
2023/06/03 00:18:39;;;;;;;14.83;8.40;;;12.90;99.90;;;;;;4951900;28;20219;-60
2023/06/03 00:21:09;;;;;;;19.10;8.40;;;12.90;99.90;;;;;;4952193;28;20254;-60
2023/06/03 00:23:38;;;;;;;14.17;9.27;;;12.90;99.90;;;;;;4949087;28;20224;-60
2023/06/03 00:26:06;;;;;;;19.70;9.03;;;12.90;99.90;;;;;;4951243;28;20228;-61
2023/06/03 00:28:35;;;;;;;18.07;9.97;;;12.90;99.90;;;;;;4951648;28;20215;-61
2023/06/03 00:31:03;;;;;;;14.63;9.40;;;12.90;99.90;;;;;;4946404;28;20228;-60
2023/06/03 00:33:32;;;;;;;14.63;9.63;;;12.90;99.90;;;;;;4949810;28;20192;-60
2023/06/03 00:36:02;;;;;;;13.70;9.60;;;12.80;99.90;;;;;;4951149;28;20227;-60
2023/06/03 00:38:30;;;;;;;19.57;10.17;;;12.80;99.90;;;;;;4949878;28;20227;-61
2023/06/03 00:40:59;;;;;;;16.47;10.50;;;12.80;99.90;;;;;;4947582;28;20228;-61
2023/06/03 00:43:27;;;;;;;25.40;10.47;;;12.70;99.90;;;;;;4957145;28;20224;-61
2023/06/03 00:45:55;;;;;;;24.27;10.70;;;12.70;99.90;;;;;;4949971;28;20243;-60
2023/06/03 00:48:24;;;;;;;19.13;10.97;;;12.70;99.90;;;;;;4948844;29;20204;-60
2023/06/03 00:50:53;;;;;;;16.33;10.63;;;12.60;99.90;;;;;;4947260;28;20570;-60
2023/06/03 00:53:23;;;;;;;17.23;11.57;;;12.60;99.90;;;;;;4948970;28;20224;-60
2023/06/03 00:55:52;;;;;;;23.93;11.17;;;12.60;99.90;;;;;;4947896;28;20595;-60
2023/06/03 00:58:20;;;;;;;20.67;12.00;;;12.60;99.90;;;;;;4949120;28;20870;-61
2023/06/03 01:00:48;;;;;;;17.27;11.20;;;12.60;99.90;;;;;;4946584;28;20243;-60
2023/06/03 01:03:19;;;;;;;18.60;12.40;;;12.60;99.90;;;;;;4949196;28;20559;-60
2023/06/03 01:05:54;;;;;;;21.27;13.10;;;12.60;99.90;;;;;;4943805;28;20690;-60
2023/06/03 01:08:31;;;;;;;19.30;12.83;;;12.50;99.90;;;;;;4964211;28;20222;-60
2023/06/03 01:11:08;;;;;;;21.83;11.97;;;12.60;99.90;;;;;;4951965;28;20228;-60
2023/06/03 01:13:46;;;;;;;14.93;12.37;;;12.50;99.90;;;;;;4951502;28;20678;-60
2023/06/03 01:16:18;;;;;;;27.60;12.93;;;12.50;99.90;;;;;;4951022;28;20226;-60
2023/06/03 01:18:48;;;;;;;20.60;12.67;;;12.50;99.90;;;;;;4949305;28;20199;-60
2023/06/03 01:21:16;;;;;;;22.87;13.80;;;12.50;99.90;;;;;;4948529;29;20193;-60
2023/06/03 01:23:48;;;;;;;19.77;12.90;;;12.50;99.90;;;;;;4950665;28;20578;-60
2023/06/03 01:26:19;;;;;;;20.63;12.70;;;12.50;99.90;;;;;;4950014;28;20246;-60
2023/06/03 01:28:49;;;;;;;18.97;12.97;;;12.50;99.90;;;;;;4951177;28;20314;-60
2023/06/03 01:31:18;;;;;;;18.93;13.20;;;12.40;99.90;;;;;;4950257;28;20226;-60
2023/06/03 01:33:47;;;;;;;19.30;14.30;;;12.40;99.90;;;;;;4953500;28;20192;-60
2023/06/03 01:36:16;;;;;;;22.00;14.57;;;12.40;99.90;;;;;;4950625;28;20230;-60
2023/06/03 01:38:46;;;;;;;24.07;14.20;;;12.40;99.90;;;;;;4953194;28;20757;-60
2023/06/03 01:41:15;;;;;;;25.70;13.70;;;12.40;99.90;;;;;;4953165;28;20702;-61
2023/06/03 01:43:43;;;;;;;17.70;12.90;;;12.40;99.90;;;;;;4948072;28;20224;-61
2023/06/03 01:46:12;;;;;;;22.10;14.03;;;12.30;99.90;;;;;;4953552;28;20251;-61
2023/06/03 01:48:41;;;;;;;22.57;15.43;;;12.30;99.90;;;;;;4950574;28;20202;-61
2023/06/03 01:51:09;;;;;;;24.17;14.83;;;12.30;99.90;;;;;;4951309;29;20202;-60
2023/06/03 01:53:37;;;;;;;22.37;15.07;;;12.30;99.90;;;;;;4950810;28;20216;-61
2023/06/03 01:56:08;;;;;;;27.90;14.63;;;12.30;99.90;;;;;;4953910;28;20223;-61
2023/06/03 01:58:36;;;;;;;23.23;15.87;;;12.20;99.90;;;;;;4949696;28;20228;-61
2023/06/03 02:01:04;;;;;;;22.03;15.07;;;12.20;99.90;;;;;;4949082;28;20224;-61
2023/06/03 02:03:33;;;;;;;21.40;15.67;;;12.20;99.90;;;;;;4954320;28;20196;-60
2023/06/03 02:06:02;;;;;;;22.07;15.60;;;12.20;99.90;;;;;;4952646;28;20200;-60
2023/06/03 02:08:30;;;;;;;22.63;15.93;;;12.20;99.90;;;;;;4952497;28;20227;-61
2023/06/03 02:10:58;;;;;;;22.43;15.10;;;12.20;99.90;;;;;;4954274;28;20231;-61
2023/06/03 02:13:28;;;;;;;22.33;15.27;;;12.20;99.90;;;;;;4951661;28;20311;-60
2023/06/03 02:15:56;;;;;;;22.90;15.37;;;12.20;99.90;;;;;;4950360;28;20231;-60
2023/06/03 02:18:26;;;;;;;22.10;16.33;;;12.20;99.90;;;;;;4949915;28;20192;-61
2023/06/03 02:20:55;;;;;;;26.60;16.83;;;12.20;99.90;;;;;;4947830;29;20215;-60
2023/06/03 02:23:23;;;;;;;24.23;16.67;;;12.20;99.90;;;;;;4946644;28;20249;-61
2023/06/03 02:25:52;;;;;;;24.67;16.03;;;12.20;99.90;;;;;;4946606;28;20220;-61
2023/06/03 02:28:22;;;;;;;24.00;16.60;;;12.20;99.90;;;;;;4951529;28;20217;-61
2023/06/03 02:30:52;;;;;;;24.47;16.87;;;12.20;99.90;;;;;;4948411;28;21242;-60
2023/06/03 02:33:20;;;;;;;23.97;15.87;;;12.10;99.90;;;;;;4949614;28;20203;-61
2023/06/03 02:35:49;;;;;;;26.73;16.27;;;12.20;99.90;;;;;;4949631;28;20710;-61
2023/06/03 02:38:17;;;;;;;24.93;16.47;;;12.20;99.90;;;;;;4949708;28;20848;-60
2023/06/03 02:40:45;;;;;;;23.57;16.17;;;12.10;99.90;;;;;;4942497;28;20228;-60
2023/06/03 02:43:15;;;;;;;24.50;16.07;;;12.10;99.90;;;;;;4949302;28;20228;-60
2023/06/03 02:45:43;;;;;;;23.17;15.93;;;12.10;99.90;;;;;;4945313;28;20196;-60
2023/06/03 02:48:13;;;;;;;22.13;16.07;;;12.10;99.90;;;;;;4952319;29;20704;-60
2023/06/03 02:50:41;;;;;;;23.80;16.07;;;12.10;99.90;;;;;;4952578;28;20247;-61
2023/06/03 02:53:11;;;;;;;22.40;15.90;;;12.10;99.90;;;;;;4950076;28;20235;-60
2023/06/03 02:55:39;;;;;;;24.07;16.17;;;12.00;99.90;;;;;;4948057;28;20695;-61
2023/06/03 02:58:08;;;;;;;22.40;16.07;;;12.10;99.90;;;;;;4949126;28;20223;-60
2023/06/03 03:00:36;;;;;;;21.00;16.00;;;12.10;99.90;;;;;;4945333;28;20220;-60
2023/06/03 03:03:04;;;;;;;20.93;15.77;;;12.00;99.90;;;;;;4948899;29;20192;-60
2023/06/03 03:05:35;;;;;;;22.30;15.27;;;12.00;99.90;;;;;;4951542;28;20282;-60
2023/06/03 03:08:03;;;;;;;20.93;15.73;;;12.00;99.90;;;;;;4948730;28;20509;-61
2023/06/03 03:10:32;;;;;;;24.07;15.60;;;12.00;99.90;;;;;;4947474;28;20318;-61
2023/06/03 03:13:00;;;;;;;20.70;15.90;;;11.90;99.90;;;;;;4947237;28;20235;-60
2023/06/03 03:15:28;;;;;;;26.00;16.80;;;11.90;99.90;;;;;;4948733;28;20189;-59
2023/06/03 03:17:57;;;;;;;23.30;15.33;;;11.90;99.90;;;;;;4944856;28;20280;-60
2023/06/03 03:20:28;;;;;;;23.27;16.80;;;11.80;99.90;;;;;;4952522;28;20215;-60
2023/06/03 03:22:59;;;;;;;26.60;16.73;;;11.80;99.90;;;;;;4951543;28;20583;-60
2023/06/03 03:25:28;;;;;;;21.67;15.43;;;11.80;99.90;;;;;;4951640;28;20227;-60
2023/06/03 03:27:56;;;;;;;27.77;16.63;;;11.80;99.90;;;;;;4951604;28;20235;-60
2023/06/03 03:30:24;;;;;;;24.33;15.80;;;11.80;99.90;;;;;;4949274;29;20203;-60
2023/06/03 03:32:53;;;;;;;28.53;16.73;;;11.80;99.90;;;;;;4949931;28;20224;-60
2023/06/03 03:35:22;;;;;;;26.77;16.00;;;11.80;99.90;;;;;;4949878;28;20259;-60
2023/06/03 03:38:02;;;;;;;24.33;16.87;;;11.80;99.90;;;;;;4951090;28;20713;-60
2023/06/03 03:40:32;;;;;;;31.87;15.47;;;11.80;99.90;;;;;;4952320;28;20728;-60
2023/06/03 03:43:02;;;;;;;20.40;15.27;;;11.70;99.90;;;;;;4947959;28;20235;-61
2023/06/03 03:45:34;;;;;;;22.60;15.97;;;11.70;99.90;;;;;;4951337;28;20249;-60
2023/06/03 03:48:05;;;;;;;23.43;15.93;;;11.70;99.90;;;;;;4950537;29;20200;-60
2023/06/03 03:50:44;;;;;;;23.33;15.20;;;11.70;99.90;;;;;;4950444;28;20307;-60
2023/06/03 03:53:16;;;;;;;25.00;15.43;;;11.70;99.90;;;;;;4949055;28;20223;-60
2023/06/03 03:55:46;;;;;;;22.33;15.60;;;11.70;99.90;;;;;;4951298;28;20232;-60
2023/06/03 03:58:27;;;;;;;23.00;15.07;;;11.70;99.90;;;;;;4949627;28;20232;-60
2023/06/03 04:00:57;;;;;;;23.10;15.10;;;11.70;99.90;;;;;;4949502;28;20271;-60
2023/06/03 04:03:26;;;;;;;23.23;15.37;;;11.70;99.90;;;;;;4950528;28;20196;-60
2023/06/03 04:05:55;;;;;;;23.07;15.80;;;11.70;99.90;;;;;;4949357;28;20262;-60
2023/06/03 04:08:40;;;;;;;23.27;15.23;;;11.70;99.90;;;;;;4948245;28;20304;-60
2023/06/03 04:11:15;;;;;;;25.43;15.33;;;11.70;99.90;;;;;;4947178;28;20232;-60
2023/06/03 04:13:44;;;;;;;23.10;14.93;;;11.70;99.90;;;;;;4947969;29;20218;-60
2023/06/03 04:16:18;;;;;;;20.60;15.17;;;11.80;99.90;;;;;;4949368;28;20278;-61
2023/06/03 04:18:47;;;;;;;20.43;14.17;;;11.80;99.90;;;;;;4952277;28;20198;-60
2023/06/03 04:21:19;;;;;;;21.70;13.97;;;11.80;99.90;;;;;;4951980;28;20204;-60
2023/06/03 04:23:49;;;;;;;19.63;13.80;;;11.80;99.90;;;;;;4953360;28;20226;-60
2023/06/03 04:26:19;;;;;;;21.97;14.43;;;11.80;99.90;;;;;;4946639;28;20585;-60
2023/06/03 04:28:48;;;;;;;19.20;14.47;;;11.80;99.90;;;;;;4953057;28;20231;-60
2023/06/03 04:31:16;;;;;;;23.20;14.40;;;11.90;99.90;;;;;;4947354;28;20228;-60
2023/06/03 04:33:44;;;;;;;26.70;14.90;;;11.90;99.90;;;;;;4947514;28;20227;-60
2023/06/03 04:36:12;;;;;;;18.83;13.67;;;11.90;99.90;;;;;;4955508;28;20219;-61
2023/06/03 04:38:41;;;;;;;24.80;14.10;;;12.00;99.90;;;;;;4949147;28;20227;-61
2023/06/03 04:41:11;;;;;;;24.80;14.30;;;12.10;99.90;;;;;;4946040;28;20228;-60
2023/06/03 04:43:40;;;;;;;19.60;13.37;;;12.20;99.90;;;;;;4949984;28;20232;-61
2023/06/03 04:46:09;;;;;;;22.90;14.07;;;12.20;99.90;;;;;;4949560;28;20231;-60
2023/06/03 04:48:41;;;;;;;24.53;14.30;;;12.30;99.90;;;;;;4948651;28;20654;-60
2023/06/03 04:51:11;;;;;;;25.53;13.23;;;12.40;99.90;;;;;;4948969;28;20204;-60
2023/06/03 04:53:41;;;;;;;20.77;12.47;;;12.40;99.90;;;;;;4950385;28;20266;-61
2023/06/03 04:56:11;;;;;;;14.33;11.40;;;12.50;99.90;;;;;;4945734;28;20229;-60
2023/06/03 04:58:40;;;;;;;17.93;12.00;;;12.60;99.90;;;;;;4947090;28;20228;-61
2023/06/03 05:01:08;;;;;;;18.13;11.50;;;12.70;99.90;;;;;;4946902;28;20290;-61
2023/06/03 05:03:38;;;;;;;17.27;11.67;;;12.70;99.90;;;;;;4952172;28;20201;-60
2023/06/03 05:06:10;;;;;;;19.00;11.10;;;12.80;99.90;;;;;;4949899;28;20200;-61
2023/06/03 05:08:39;;;;;;;19.00;11.20;;;12.90;99.90;;;;;;4952192;28;20226;-61
2023/06/03 05:11:08;;;;;;;15.93;11.07;;;13.00;99.90;;;;;;4950285;28;20242;-60
2023/06/03 05:13:37;;;;;;;19.10;10.27;;;13.10;99.90;;;;;;4950602;28;20220;-60
2023/06/03 05:16:06;;;;;;;18.23;10.23;;;13.20;99.90;;;;;;4950785;28;20228;-61
2023/06/03 05:18:35;;;;;;;16.90;10.07;;;13.30;99.90;;;;;;4950202;28;20635;-59
2023/06/03 05:21:05;;;;;;;18.10;9.43;;;13.30;99.90;;;;;;4950016;28;20292;-61
2023/06/03 05:23:34;;;;;;;17.73;9.97;;;13.50;99.90;;;;;;4949592;28;20225;-61
2023/06/03 05:26:02;;;;;;;17.57;10.30;;;13.50;99.90;;;;;;4952831;28;20346;-61
2023/06/03 05:28:31;;;;;;;18.87;10.00;;;13.70;99.90;;;;;;4956250;28;20227;-61
2023/06/03 05:31:00;;;;;;;18.30;9.77;;;13.70;99.90;;;;;;4951861;28;20231;-61
2023/06/03 05:33:30;;;;;;;19.60;9.77;;;13.90;99.90;;;;;;4956034;28;20200;-59
2023/06/03 05:35:59;;;;;;;14.57;9.53;;;13.90;99.90;;;;;;4954604;28;20215;-61
2023/06/03 05:38:30;;;;;;;16.10;9.23;;;14.00;99.90;;;;;;4946096;28;20224;-61
2023/06/03 05:40:59;;;;;;;13.80;9.43;;;14.20;99.90;;;;;;4951125;28;20246;-61
2023/06/03 05:43:28;;;;;;;19.17;9.93;;;14.20;99.90;;;;;;4950594;28;20223;-61
2023/06/03 05:45:56;;;;;;;15.13;9.23;;;14.30;99.90;;;;;;4946523;28;20236;-61
2023/06/03 05:48:26;;;;;;;19.17;9.90;;;14.40;99.90;;;;;;4952154;28;20216;-61
2023/06/03 05:50:55;;;;;;;10.63;8.17;;;14.50;99.90;;;;;;4945865;29;20698;-61
2023/06/03 05:53:25;;;;;;;13.77;8.77;;;14.60;99.90;;;;;;4952467;28;20226;-61
2023/06/03 05:55:54;;;;;;;12.60;9.30;;;14.60;99.90;;;;;;4946978;28;20802;-61
2023/06/03 05:58:23;;;;;;;13.03;9.40;;;14.80;99.90;;;;;;4952414;28;20705;-61
2023/06/03 06:00:52;;;;;;;13.40;9.20;;;14.80;99.90;;;;;;4949560;28;20223;-61
2023/06/03 06:03:20;;;;;;;13.80;9.17;;;15.00;99.90;;;;;;4952208;28;20650;-61
2023/06/03 06:05:50;;;;;;;18.60;9.07;;;15.20;99.90;;;;;;4947855;28;20223;-61
2023/06/03 06:08:18;;;;;;;18.67;8.50;;;15.30;99.90;;;;;;4950068;28;20215;-61
2023/06/03 06:10:47;;;;;;;14.27;8.60;;;15.40;99.90;;;;;;4950213;28;20227;-61
2023/06/03 06:13:15;;;;;;;16.87;8.17;;;15.40;99.90;;;;;;4942482;28;20224;-61
2023/06/03 06:15:58;;;;;;;15.43;8.60;;;15.50;99.90;;;;;;4944579;28;20579;-61
2023/06/03 06:18:27;;;;;;;12.40;8.47;;;15.50;99.90;;;;;;4943120;28;20212;-61
2023/06/03 06:20:57;;;;;;;14.70;8.00;;;15.70;99.90;;;;;;4946430;28;20235;-61
2023/06/03 06:23:25;;;;;;;16.57;8.37;;;15.80;99.90;;;;;;4944882;28;20579;-61
2023/06/03 06:25:55;;;;;;;11.70;8.20;;;15.80;99.90;;;;;;4948430;28;20218;-61
2023/06/03 06:28:26;;;;;;;14.33;7.97;;;15.80;99.90;;;;;;4945311;28;20263;-61
2023/06/03 06:30:55;;;;;;;13.60;7.87;;;16.00;99.90;;;;;;4953341;28;20283;-61
2023/06/03 06:33:24;;;;;;;16.57;7.83;;;16.20;99.90;;;;;;4954689;28;20551;-61
2023/06/03 06:35:52;;;;;;;13.27;7.70;;;16.30;99.90;;;;;;4953404;28;20228;-62
2023/06/03 06:38:22;;;;;;;15.17;7.80;;;16.30;99.90;;;;;;4946207;28;20216;-61
2023/06/03 06:40:51;;;;;;;16.33;7.37;;;16.50;99.90;;;;;;4943459;28;20587;-61
2023/06/03 06:43:25;;;;;;;8.87;6.70;;;16.60;99.90;;;;;;4946176;28;20231;-61
2023/06/03 06:45:56;;;;;;;11.30;7.37;;;16.80;99.90;;;;;;4945934;28;20231;-61
2023/06/03 06:48:25;;;;;;;14.83;6.73;;;16.80;99.90;;;;;;4950401;28;20210;-61
2023/06/03 06:50:55;;;;;;;12.10;7.20;;;16.90;99.90;;;;;;4948566;29;20219;-61
2023/06/03 06:53:27;;;;;;;9.83;6.43;;;17.00;99.90;;;;;;4941619;28;20254;-61
2023/06/03 06:55:56;;;;;;;15.50;6.33;;;17.00;99.90;;;;;;4943087;28;20272;-61
2023/06/03 06:58:27;;;;;;;8.13;5.83;;;17.00;99.90;;;;;;4943177;28;20233;-61
2023/06/03 07:00:57;;;;;;;9.87;6.37;;;17.20;99.90;;;;;;4951142;28;20567;-61
2023/06/03 07:03:25;;;;;;;12.97;6.37;;;17.40;99.90;;;;;;4960211;28;20263;-61
2023/06/03 07:05:54;;;;;;;7.50;5.43;;;17.60;99.90;;;;;;4960576;28;20224;-61
2023/06/03 07:08:25;;;;;;;12.23;5.83;;;17.60;99.90;;;;;;4953360;28;20223;-61
2023/06/03 07:10:58;;;;;;;10.67;5.50;;;17.70;99.90;;;;;;4950978;28;20234;-61
2023/06/03 07:13:26;;;;;;;10.63;5.07;;;17.70;99.90;;;;;;4949805;28;20783;-62
2023/06/03 07:15:55;;;;;;;10.17;5.50;;;17.80;99.90;;;;;;4951087;28;20279;-61
2023/06/03 07:18:25;;;;;;;7.47;4.97;;;17.80;99.90;;;;;;4951092;28;20267;-62
2023/06/03 07:20:54;;;;;;;8.20;4.73;;;17.90;99.90;;;;;;4951569;29;20226;-61
2023/06/03 07:23:26;;;;;;;10.70;5.30;;;18.00;99.90;;;;;;4948044;28;20247;-62
2023/06/03 07:25:55;;;;;;;7.87;4.90;;;18.20;99.90;;;;;;4944033;28;20243;-61
2023/06/03 07:28:29;;;;;;;8.93;4.57;;;18.40;99.90;;;;;;4948222;28;20600;-61
2023/06/03 07:31:00;;;;;;;6.03;4.50;;;18.60;99.90;;;;;;4950790;28;20557;-62
2023/06/03 07:33:30;;;;;;;9.60;5.00;;;18.80;99.90;;;;;;4946914;28;20239;-60
2023/06/03 07:36:00;;;;;;;6.50;4.37;;;18.70;99.90;;;;;;4952743;28;20219;-61
2023/06/03 07:38:57;;;;;;;7.43;4.80;;;18.90;99.90;;;;;;4952663;28;20314;-62
2023/06/03 07:41:40;;;;;;;8.00;4.13;;;19.10;99.90;;;;;;4946975;28;20298;-61
2023/06/03 07:44:10;;;;;;;9.30;4.73;;;19.30;99.90;;;;;;4952602;28;20230;-62
2023/06/03 07:46:44;;;;;;;8.53;3.73;;;19.50;99.90;;;;;;4949666;28;20231;-61
2023/06/03 07:49:14;;;;;;;6.27;4.10;;;19.70;99.90;;;;;;4952471;28;20305;-61
2023/06/03 07:51:45;;;;;;;9.23;4.20;;;19.80;99.90;;;;;;4952771;28;20192;-61
2023/06/03 07:54:16;;;;;;;10.93;4.33;;;19.80;99.90;;;;;;4953580;28;20193;-62
2023/06/03 07:56:46;;;;;;;6.43;3.50;;;19.80;99.90;;;;;;4950874;28;20232;-61
2023/06/03 07:59:15;;;;;;;6.50;3.33;;;19.90;99.90;;;;;;4950580;28;20631;-61
2023/06/03 08:01:44;;;;;;;8.10;3.30;;;20.10;99.90;;;;;;4950340;28;20626;-62
2023/06/03 08:04:27;;;;;;;9.03;3.70;;;20.30;99.90;;;;;;4949390;28;20307;-62
2023/06/03 08:06:56;;;;;;;4.47;3.40;;;20.50;99.90;;;;;;4946234;28;20228;-61
2023/06/03 08:09:28;;;;;;;5.87;3.30;;;20.80;99.90;;;;;;4953510;28;20242;-61
2023/06/03 08:11:58;;;;;;;6.23;3.87;;;20.80;99.90;;;;;;4950040;29;20229;-62
2023/06/03 08:14:26;;;;;;;3.53;3.20;;;20.60;99.90;;;;;;4950801;28;20223;-62
2023/06/03 08:16:57;;;;;;;4.13;2.53;;;20.80;99.90;;;;;;4950501;28;20220;-62
2023/06/03 08:19:25;;;;;;;3.37;2.40;;;21.10;99.90;;;;;;4951747;28;20273;-62
2023/06/03 08:21:54;;;;;;;6.37;2.90;;;21.30;99.90;;;;;;4949351;28;20326;-62
2023/06/03 08:24:22;;;;;;;4.30;2.73;;;21.30;99.90;;;;;;4948239;28;20255;-61
2023/06/03 08:26:52;;;;;;;3.17;2.30;;;21.50;99.90;;;;;;4948601;28;20230;-61
2023/06/03 08:29:20;;;;;;;5.13;2.40;;;21.60;99.90;;;;;;4946704;28;20259;-62
2023/06/03 08:31:48;;;;;;;2.77;2.60;;;21.60;99.90;;;;;;4950168;28;20295;-62
2023/06/03 08:34:17;;;;;;;4.07;2.73;;;21.60;99.90;;;;;;4949725;28;20841;-61
2023/06/03 08:36:45;;;;;;;5.33;2.40;;;21.80;99.90;;;;;;4955620;28;20222;-62
2023/06/03 08:39:15;;;;;;;4.97;2.50;;;21.90;99.90;;;;;;4957038;28;20222;-62
2023/06/03 08:41:44;;;;;;;5.60;2.03;;;22.20;99.90;;;;;;4954535;28;20257;-62
2023/06/03 08:44:33;;;;;;;2.97;2.33;;;22.30;99.90;;;;;;4950917;28;20227;-62
2023/06/03 08:47:10;;;;;;;6.67;2.57;;;22.50;99.90;;;;;;4953703;28;20318;-62
2023/06/03 08:49:49;;;;;;;2.07;1.97;;;22.80;99.90;;;;;;4952906;28;20215;-62
2023/06/03 08:52:20;;;;;;;5.90;2.30;;;22.80;99.90;;;;;;4951265;28;20228;-62
2023/06/03 08:54:48;;;;;;;4.47;2.80;;;22.80;99.90;;;;;;4954306;28;21094;-61
2023/06/03 08:57:19;;;;;;;3.87;2.30;;;22.90;99.90;;;;;;4953128;28;20192;-62
2023/06/03 08:59:52;;;;;;;3.97;2.03;;;23.00;99.90;;;;;;4942372;28;20295;-61
2023/06/03 09:02:21;;;;;;;2.47;2.17;;;23.30;99.90;;;;;;4954235;28;20628;-62
2023/06/03 09:04:50;;;;;;;5.43;2.30;;;23.60;99.90;;;;;;4952450;28;20220;-62
2023/06/03 09:07:21;;;;;;;6.33;2.20;;;23.60;99.90;;;;;;4952991;28;20216;-62
2023/06/03 09:09:51;;;;;;;2.03;1.97;;;23.70;99.90;;;;;;4953330;28;20236;-62
2023/06/03 09:12:20;;;;;;;3.73;2.17;;;23.70;99.90;;;;;;4953944;29;20203;-62
2023/06/03 09:14:51;;;;;;;2.00;1.90;;;23.50;99.90;;;;;;4947243;28;20226;-62
2023/06/03 09:17:20;;;;;;;5.07;1.87;;;23.70;99.90;;;;;;4953510;28;20225;-62
2023/06/03 09:19:48;;;;;;;2.37;2.27;;;23.80;99.90;;;;;;4959006;28;20220;-62
2023/06/03 09:22:17;;;;;;;3.13;2.00;;;23.80;99.90;;;;;;4950036;28;20574;-62
2023/06/03 09:24:46;;;;;;;5.73;2.27;;;24.00;99.90;;;;;;4948008;28;20212;-62
2023/06/03 09:27:14;;;;;;;3.23;1.90;;;24.20;99.90;;;;;;4951913;28;20211;-62
2023/06/03 09:29:42;;;;;;;2.40;2.20;;;24.40;99.90;;;;;;4946298;28;20307;-62
2023/06/03 09:32:12;;;;;;;6.38;2.25;;;24.50;99.90;;;;;;4954624;28;20245;-62
2023/06/03 09:34:42;;;;;;;2.20;2.10;;;24.50;99.00;;;;;;4954948;28;20230;-62
2023/06/03 09:37:10;;;;;;;4.27;2.00;;;24.40;99.90;;;;;;4955164;28;20243;-62
2023/06/03 09:39:40;;;;;;;2.10;2.00;;;24.30;99.40;;;;;;4951982;28;20220;-62
2023/06/03 09:42:10;;;;;;;3.80;1.90;;;24.50;98.20;;;;;;4950281;28;20192;-62
2023/06/03 09:44:41;;;;;;;2.63;2.00;;;24.40;97.50;;;;;;4953201;28;20245;-62
2023/06/03 09:47:11;;;;;;;4.57;2.13;;;24.50;97.60;;;;;;4950000;28;20232;-62
2023/06/03 09:49:40;;;;;;;3.60;2.10;;;24.80;97.60;;;;;;4956838;28;20272;-62
2023/06/03 09:52:12;;;;;;;2.78;2.03;;;24.90;97.20;;;;;;4952480;28;20232;-62
2023/06/03 09:54:41;;;;;;;6.70;2.00;;;24.80;96.80;;;;;;4949363;28;20199;-61
2023/06/03 09:57:11;;;;;;;2.20;2.00;;;24.80;96.80;;;;;;4953537;28;20827;-62
2023/06/03 09:59:43;;;;;;;2.88;1.95;;;24.70;95.30;;;;;;4952355;28;20227;-62
2023/06/03 10:02:15;;;;;;;2.45;2.03;;;24.90;96.60;;;;;;4944377;28;20230;-62
2023/06/03 10:04:45;;;;;;;4.22;2.40;;;25.20;95.70;;;;;;4950242;28;20229;-62
2023/06/03 10:07:16;;;;;;;3.55;2.40;;;25.30;94.50;;;;;;4951418;28;20563;-62
2023/06/03 10:09:47;;;;;;;3.15;1.98;;;25.20;94.80;;;;;;4954502;28;20286;-62
2023/06/03 10:12:28;;;;;;;3.42;2.10;;;25.30;96.50;;;;;;4949235;28;20210;-62
2023/06/03 10:14:58;;;;;;;2.33;2.13;;;25.50;95.80;;;;;;4953390;28;20228;-62
2023/06/03 10:17:28;;;;;;;4.10;2.42;;;26.00;93.90;;;;;;4952638;28;20648;-63
2023/06/03 10:19:56;;;;;;;2.30;2.10;;;25.90;93.20;;;;;;4951046;28;20837;-62
2023/06/03 10:22:26;;;;;;;2.20;2.00;;;25.90;92.70;;;;;;4941233;28;20235;-62
2023/06/03 10:24:56;;;;;;;5.68;2.35;;;26.00;93.00;;;;;;4952295;28;20228;-62
2023/06/03 10:27:26;;;;;;;6.75;2.03;;;26.20;92.80;;;;;;4951791;28;20190;-62
2023/06/03 10:29:54;;;;;;;2.28;2.05;;;26.20;94.20;;;;;;4952293;29;20217;-62
2023/06/03 10:32:24;;;;;;;4.30;2.40;;;26.40;94.40;;;;;;4952106;28;20231;-62
2023/06/03 10:34:55;;;;;;;2.40;2.20;;;26.60;92.40;;;;;;4951417;28;20226;-62
2023/06/03 10:37:25;;;;;;;2.90;2.30;;;26.70;93.30;;;;;;4953381;28;20240;-62
2023/06/03 10:39:55;;;;;;;4.82;2.28;;;26.80;92.20;;;;;;4952451;28;20237;-64
2023/06/03 10:42:24;;;;;;;6.55;2.50;;;26.70;93.20;;;;;;4953308;29;20544;-62
2023/06/03 10:44:53;;;;;;;3.03;2.63;;;26.40;93.10;;;;;;4951748;28;20234;-62
2023/06/03 10:47:26;;;;;;;3.10;2.30;;;26.40;91.80;;;;;;4947313;28;20234;-62
2023/06/03 10:50:00;;;;;;;3.90;2.00;;;26.40;91.30;;;;;;4945769;28;20213;-62
2023/06/03 10:52:49;;;;;;;7.00;2.15;;;26.30;91.00;;;;;;4947276;28;20227;-62
2023/06/03 10:55:28;;;;;;;2.47;2.08;;;26.40;92.70;;;;;;4942260;28;20228;-62
2023/06/03 10:58:01;;;;;;;4.32;1.83;;;26.50;92.10;;;;;;4952305;28;20757;-62
2023/06/03 11:00:58;;;;;;;5.68;1.75;;;26.40;90.60;;;;;;4950549;28;20680;-62
2023/06/03 11:03:27;;;;;;;6.55;2.30;;;26.50;90.50;;;;;;4947130;28;20568;-62
2023/06/03 11:06:35;;;;;;;3.53;2.13;;;26.40;91.30;;;;;;4946712;28;20217;-62
2023/06/03 11:09:05;;;;;;;1.98;1.80;;;26.30;91.80;;;;;;4942942;29;20229;-62
2023/06/03 11:12:09;;;;;;;3.22;1.85;;;26.30;91.30;;;;;;4950697;28;20216;-62
2023/06/03 11:14:56;;;;;;;5.60;1.75;;;26.60;95.20;;;;;;4907287;29;20739;-62
2023/06/03 11:17:26;;;;;;;3.47;1.88;;;26.60;90.10;;;;;;4905671;29;20360;-64
2023/06/03 11:19:57;;;;;;;3.33;1.70;;;26.40;89.50;;;;;;4933317;28;20315;-62
2023/06/03 11:22:47;;;;;;;3.67;2.25;;;25.90;91.10;;;;;;4948570;28;20230;-61
2023/06/03 11:25:32;;;;;;;1.90;1.80;;;26.00;92.50;;;;;;4945718;28;20220;-62
2023/06/03 11:28:36;;;;;;;3.10;1.93;;;26.20;88.30;;;;;;4945401;28;20319;-62
2023/06/03 11:31:06;;;;;;;1.90;1.80;;;26.30;91.60;;;;;;4947875;28;20223;-62
2023/06/03 11:33:35;;;;;;;2.00;1.90;;;26.10;88.00;;;;;;4943608;28;20199;-62
2023/06/03 11:36:43;;;;;;;4.70;2.00;;;26.10;90.30;;;;;;4948360;28;20252;-61
2023/06/03 11:39:13;;;;;;;3.80;2.27;;;25.80;86.40;;;;;;4949019;28;20223;-61
2023/06/03 11:42:01;;;;;;;3.47;1.80;;;25.80;90.60;;;;;;4950635;28;20478;-61
2023/06/03 11:44:30;;;;;;;4.23;1.83;;;26.00;91.30;;;;;;4949558;28;20222;-61
2023/06/03 11:47:02;;;;;;;3.10;1.83;;;26.20;91.00;;;;;;4945263;28;20730;-61
2023/06/03 11:49:34;;;;;;;4.13;1.83;;;26.00;90.40;;;;;;4946454;28;20251;-61
2023/06/03 11:52:04;;;;;;;3.60;1.90;;;26.00;87.30;;;;;;4951537;28;20224;-61
2023/06/03 11:54:34;;;;;;;4.57;1.70;;;25.90;86.00;;;;;;4947900;28;20201;-61
2023/06/03 11:57:03;;;;;;;3.07;1.90;;;25.80;92.00;;;;;;4946569;29;20214;-61
2023/06/03 11:59:37;;;;;;;2.83;1.90;;;25.70;85.50;;;;;;4944522;28;20278;-61
2023/06/03 12:02:06;;;;;;;3.33;2.10;;;25.70;90.40;;;;;;4945220;28;20687;-61
2023/06/03 12:04:36;;;;;;;3.67;1.80;;;25.60;84.10;;;;;;4949565;28;20236;-61
2023/06/03 12:07:11;;;;;;;5.17;2.30;;;25.50;89.10;;;;;;4945516;28;20591;-61
2023/06/03 12:09:41;;;;;;;5.73;1.73;;;25.70;90.10;;;;;;4940281;28;20208;-61
2023/06/03 12:12:11;;;;;;;2.77;1.70;;;25.90;94.20;;;;;;4945999;29;20222;-61
2023/06/03 12:14:41;;;;;;;7.93;1.80;;;26.00;91.30;;;;;;4948829;28;20267;-61
2023/06/03 12:17:13;;;;;;;4.57;2.07;;;26.00;85.50;;;;;;4946636;28;20227;-61
2023/06/03 12:19:43;;;;;;;2.90;1.70;;;25.50;85.50;;;;;;4948801;28;20220;-61
2023/06/03 12:22:12;;;;;;;6.23;1.80;;;25.20;91.80;;;;;;4948971;28;20239;-61
2023/06/03 12:24:44;;;;;;;1.93;1.83;;;25.20;84.40;;;;;;4948249;28;20196;-60
2023/06/03 12:27:14;;;;;;;1.80;1.80;;;25.20;89.70;;;;;;4945443;29;20203;-61
2023/06/03 12:29:44;;;;;;;1.77;1.67;;;25.30;90.20;;;;;;4950058;28;20230;-61
2023/06/03 12:32:12;;;;;;;1.73;1.63;;;25.20;83.90;;;;;;4949130;28;20692;-61
2023/06/03 12:34:41;;;;;;;1.63;1.60;;;24.80;84.10;;;;;;4952470;28;20345;-61
2023/06/03 12:37:10;;;;;;;2.67;1.73;;;24.80;86.60;;;;;;4950616;28;20231;-61
2023/06/03 12:39:45;;;;;;;5.90;1.70;;;24.90;86.10;;;;;;4948280;28;20198;-60
2023/06/03 12:42:14;;;;;;;2.10;1.77;;;24.90;88.50;;;;;;4949838;28;20209;-61
2023/06/03 12:44:43;;;;;;;3.50;1.70;;;25.00;85.50;;;;;;4952798;28;20226;-61
2023/06/03 12:47:14;;;;;;;3.33;1.83;;;25.10;86.10;;;;;;4947826;28;20226;-61
2023/06/03 12:49:43;;;;;;;2.17;1.80;;;24.90;84.10;;;;;;4947174;28;20280;-61
2023/06/03 12:52:13;;;;;;;3.40;1.80;;;25.10;84.70;;;;;;4950902;28;20222;-61
2023/06/03 12:54:51;;;;;;;3.43;1.60;;;25.00;82.50;;;;;;4951465;28;20878;-60
2023/06/03 12:57:21;;;;;;;3.50;1.80;;;25.20;85.70;;;;;;4947284;28;20203;-61